sensor_id;sensor_type;location;lat;lon;timestamp;pressure;altitude;pressure_sealevel;temperature;humidity
22775;BME280;11554;51.106;3.684;2023-03-04T00:00:00;102739.75;;;4.21;97.68
22775;BME280;11554;51.106;3.684;2023-03-04T00:05:00;102744.78;;;4.18;98.0
22775;BME280;11554;51.106;3.684;2023-03-04T00:10:00;102749.34000000001;;;4.16;98.3
22775;BME280;11554;51.106;3.684;2023-03-04T00:15:00;102748.12;;;4.13;98.48
22775;BME280;11554;51.106;3.684;2023-03-04T00:20:00;102750.87000000001;;;4.11;98.78
22775;BME280;11554;51.106;3.684;2023-03-04T00:25:00;102750.37999999999;;;4.08;98.85
22775;BME280;11554;51.106;3.684;2023-03-04T00:30:00;102744.20999999999;;;4.06;99.1
22775;BME280;11554;51.106;3.684;2023-03-04T00:35:00;102744.54000000001;;;4.03;99.38
22775;BME280;11554;51.106;3.684;2023-03-04T00:40:00;102740.23;;;4.01;99.5
22775;BME280;11554;51.106;3.684;2023-03-04T00:45:00;102740.48;;;3.99;100.0
22775;BME280;11554;51.106;3.684;2023-03-04T00:50:00;102741.92;;;3.95;99.75
22775;BME280;11554;51.106;3.684;2023-03-04T00:55:00;102742.42;;;3.94;99.91
22775;BME280;11554;51.106;3.684;2023-03-04T01:00:00;102741.15999999999;;;3.95;100.0
22775;BME280;11554;51.106;3.684;2023-03-04T01:05:00;102741.91;;;3.93;100.0
22775;BME280;11554;51.106;3.684;2023-03-04T01:10:00;102740.5;;;3.93;100.0
22775;BME280;11554;51.106;3.684;2023-03-04T01:15:00;102735.14;;;3.99;100.0
22775;BME280;11554;51.106;3.684;2023-03-04T01:20:00;102737.06999999999;;;4.02;100.0
22775;BME280;11554;51.106;3.684;2023-03-04T01:25:00;102734.3;;;4.01;100.0
22775;BME280;11554;51.106;3.684;2023-03-04T01:30:00;102731.14;;;4.05;100.0
22775;BME280;11554;51.106;3.684;2023-03-04T01:35:00;102725.05000000002;;;4.10;100.0
22775;BME280;11554;51.106;3.684;2023-03-04T01:40:00;102718.58;;;4.12;100.0
22775;BME280;11554;51.106;3.684;2023-03-04T01:45:00;102710.12000000001;;;4.16;100.0
22775;BME280;11554;51.106;3.684;2023-03-04T01:50:00;102708.47000000002;;;4.22;100.0
22775;BME280;11554;51.106;3.684;2023-03-04T01:55:00;102697.77999999998;;;4.25;100.0
22775;BME280;11554;51.106;3.684;2023-03-04T02:05:00;102685.86;;;4.27;100.0
22775;BME280;11554;51.106;3.684;2023-03-04T02:10:00;102680.18;;;4.37;100.0
22775;BME280;11554;51.106;3.684;2023-03-04T02:15:00;102672.23;;;4.34;100.0
22775;BME280;11554;51.106;3.684;2023-03-04T02:20:02;102671.06000000001;;;4.33;100.0
22775;BME280;11554;51.106;3.684;2023-03-04T02:25:01;102663.16999999998;;;4.34;100.0
22775;BME280;11554;51.106;3.684;2023-03-04T02:30:00;102651.64;;;4.38;100.0
22775;BME280;11554;51.106;3.684;2023-03-04T02:35:00;102656.18;;;4.36;100.0
22775;BME280;11554;51.106;3.684;2023-03-04T02:40:00;102653.73999999999;;;4.37;100.0
22775;BME280;11554;51.106;3.684;2023-03-04T02:45:00;102651.17;;;4.37;100.0
22775;BME280;11554;51.106;3.684;2023-03-04T02:50:00;102652.47;;;4.37;100.0
22775;BME280;11554;51.106;3.684;2023-03-04T02:55:00;102647.53;;;4.38;100.0
22775;BME280;11554;51.106;3.684;2023-03-04T03:00:00;102642.48999999999;;;4.37;100.0
22775;BME280;11554;51.106;3.684;2023-03-04T03:05:00;102644.48;;;4.36;100.0
22775;BME280;11554;51.106;3.684;2023-03-04T03:10:00;102645.20999999999;;;4.34;100.0
22775;BME280;11554;51.106;3.684;2023-03-04T03:15:00;102648.06000000001;;;4.32;100.0
22775;BME280;11554;51.106;3.684;2023-03-04T03:20:00;102645.07;;;4.29;100.0
22775;BME280;11554;51.106;3.684;2023-03-04T03:25:00;102646.08;;;4.31;100.0
22775;BME280;11554;51.106;3.684;2023-03-04T03:30:00;102647.0;;;4.34;100.0
22775;BME280;11554;51.106;3.684;2023-03-04T03:35:00;102643.06999999999;;;4.38;100.0
22775;BME280;11554;51.106;3.684;2023-03-04T03:40:00;102645.15;;;4.37;100.0
22775;BME280;11554;51.106;3.684;2023-03-04T03:45:00;102649.65999999999;;;4.40;100.0
22775;BME280;11554;51.106;3.684;2023-03-04T03:50:00;102648.29;;;4.43;100.0
22775;BME280;11554;51.106;3.684;2023-03-04T03:55:00;102647.90000000001;;;4.43;100.0
22775;BME280;11554;51.106;3.684;2023-03-04T04:00:00;102649.28;;;4.40;100.0
22775;BME280;11554;51.106;3.684;2023-03-04T04:05:00;102653.7;;;4.38;100.0
22775;BME280;11554;51.106;3.684;2023-03-04T04:10:00;102654.35;;;4.36;100.0
22775;BME280;11554;51.106;3.684;2023-03-04T04:15:00;102652.02999999998;;;4.36;100.0
22775;BME280;11554;51.106;3.684;2023-03-04T04:20:00;102652.64;;;4.35;100.0
22775;BME280;11554;51.106;3.684;2023-03-04T04:25:00;102649.37;;;4.34;100.0
22775;BME280;11554;51.106;3.684;2023-03-04T04:30:00;102650.12;;;4.34;100.0
22775;BME280;11554;51.106;3.684;2023-03-04T04:35:00;102650.0;;;4.33;100.0
22775;BME280;11554;51.106;3.684;2023-03-04T04:40:00;102654.14000000001;;;4.28;100.0
22775;BME280;11554;51.106;3.684;2023-03-04T04:45:00;102652.02999999998;;;4.24;100.0
22775;BME280;11554;51.106;3.684;2023-03-04T04:50:00;102651.25;;;4.23;100.0
22775;BME280;11554;51.106;3.684;2023-03-04T04:55:00;102649.51000000001;;;4.21;100.0
22775;BME280;11554;51.106;3.684;2023-03-04T05:00:00;102653.05;;;4.22;100.0
22775;BME280;11554;51.106;3.684;2023-03-04T05:05:00;102653.67000000001;;;4.20;100.0
22775;BME280;11554;51.106;3.684;2023-03-04T05:10:00;102653.82999999999;;;4.23;100.0
22775;BME280;11554;51.106;3.684;2023-03-04T05:15:00;102655.29;;;4.22;100.0
22775;BME280;11554;51.106;3.684;2023-03-04T05:20:00;102654.37;;;4.20;100.0
22775;BME280;11554;51.106;3.684;2023-03-04T05:25:00;102655.68000000001;;;4.25;100.0
22775;BME280;11554;51.106;3.684;2023-03-04T05:30:00;102658.18999999999;;;4.30;100.0
22775;BME280;11554;51.106;3.684;2023-03-04T05:35:00;102656.59000000001;;;4.31;100.0
22775;BME280;11554;51.106;3.684;2023-03-04T05:40:00;102653.09999999999;;;4.36;99.83
22775;BME280;11554;51.106;3.684;2023-03-04T05:45:00;102655.46999999999;;;4.38;99.73
22775;BME280;11554;51.106;3.684;2023-03-04T05:50:00;102658.03000000001;;;4.35;99.94
22775;BME280;11554;51.106;3.684;2023-03-04T05:55:00;102662.94;;;4.35;100.0
22775;BME280;11554;51.106;3.684;2023-03-04T06:00:00;102667.31;;;4.35;100.0
22775;BME280;11554;51.106;3.684;2023-03-04T06:05:00;102668.51;;;4.34;100.0
22775;BME280;11554;51.106;3.684;2023-03-04T06:10:00;102673.65;;;4.33;100.0
22775;BME280;11554;51.106;3.684;2023-03-04T06:15:00;102672.63;;;4.31;100.0
22775;BME280;11554;51.106;3.684;2023-03-04T06:20:00;102671.11;;;4.29;100.0
22775;BME280;11554;51.106;3.684;2023-03-04T06:25:00;102675.59000000001;;;4.27;100.0
22775;BME280;11554;51.106;3.684;2023-03-04T06:30:00;102677.59000000001;;;4.25;100.0
22775;BME280;11554;51.106;3.684;2023-03-04T06:35:00;102682.18999999999;;;4.23;100.0
22775;BME280;11554;51.106;3.684;2023-03-04T06:40:00;102683.26;;;4.23;100.0
22775;BME280;11554;51.106;3.684;2023-03-04T06:45:00;102681.54;;;4.23;100.0
22775;BME280;11554;51.106;3.684;2023-03-04T06:50:00;102676.51000000001;;;4.24;100.0
22775;BME280;11554;51.106;3.684;2023-03-04T06:55:00;102682.02000000002;;;4.25;100.0
22775;BME280;11554;51.106;3.684;2023-03-04T07:00:00;102682.37;;;4.27;100.0
22775;BME280;11554;51.106;3.684;2023-03-04T07:05:00;102694.35;;;4.29;100.0
22775;BME280;11554;51.106;3.684;2023-03-04T07:10:00;102702.09;;;4.30;100.0
22775;BME280;11554;51.106;3.684;2023-03-04T07:15:00;102709.99999999999;;;4.32;100.0
22775;BME280;11554;51.106;3.684;2023-03-04T07:20:00;102717.81000000001;;;4.35;100.0
22775;BME280;11554;51.106;3.684;2023-03-04T07:25:00;102728.93999999999;;;4.37;100.0
22775;BME280;11554;51.106;3.684;2023-03-04T07:30:00;102732.81;;;4.39;100.0
22775;BME280;11554;51.106;3.684;2023-03-04T07:35:00;102738.06;;;4.43;100.0
22775;BME280;11554;51.106;3.684;2023-03-04T07:40:00;102739.86;;;4.48;100.0
22775;BME280;11554;51.106;3.684;2023-03-04T07:45:00;102745.67;;;4.53;100.0
22775;BME280;11554;51.106;3.684;2023-03-04T07:50:00;102741.46;;;4.59;100.0
22775;BME280;11554;51.106;3.684;2023-03-04T07:55:00;102742.37000000001;;;4.69;100.0
22775;BME280;11554;51.106;3.684;2023-03-04T08:00:00;102744.76;;;4.75;100.0
22775;BME280;11554;51.106;3.684;2023-03-04T08:05:00;102750.01;;;4.77;100.0
22775;BME280;11554;51.106;3.684;2023-03-04T08:10:00;102749.1;;;4.81;100.0
22775;BME280;11554;51.106;3.684;2023-03-04T08:15:00;102757.3;;;4.92;100.0
22775;BME280;11554;51.106;3.684;2023-03-04T08:20:00;102755.09999999999;;;5.04;100.0
22775;BME280;11554;51.106;3.684;2023-03-04T08:25:00;102759.35999999999;;;5.09;100.0
22775;BME280;11554;51.106;3.684;2023-03-04T08:30:00;102758.31000000001;;;5.12;100.0
22775;BME280;11554;51.106;3.684;2023-03-04T08:35:00;102748.62000000001;;;5.09;100.0
22775;BME280;11554;51.106;3.684;2023-03-04T08:40:00;102752.84;;;5.23;100.0
22775;BME280;11554;51.106;3.684;2023-03-04T08:45:00;102751.75;;;5.36;100.0
22775;BME280;11554;51.106;3.684;2023-03-04T08:50:00;102751.9;;;5.56;100.0
22775;BME280;11554;51.106;3.684;2023-03-04T08:55:00;102753.06;;;5.77;100.0
22775;BME280;11554;51.106;3.684;2023-03-04T09:00:00;102757.58;;;5.82;100.0
22775;BME280;11554;51.106;3.684;2023-03-04T09:05:00;102757.01;;;5.83;100.0
22775;BME280;11554;51.106;3.684;2023-03-04T09:10:00;102758.01;;;5.82;100.0
22775;BME280;11554;51.106;3.684;2023-03-04T09:15:00;102758.73;;;5.79;100.0
22775;BME280;11554;51.106;3.684;2023-03-04T09:20:00;102761.29000000001;;;5.94;100.0
22775;BME280;11554;51.106;3.684;2023-03-04T09:25:00;102759.25;;;6.31;100.0
22775;BME280;11554;51.106;3.684;2023-03-04T09:30:00;102753.67000000001;;;6.69;100.0
22775;BME280;11554;51.106;3.684;2023-03-04T09:35:00;102746.13999999998;;;6.74;100.0
22775;BME280;11554;51.106;3.684;2023-03-04T09:40:00;102750.09999999999;;;6.76;100.0
22775;BME280;11554;51.106;3.684;2023-03-04T09:45:00;102751.73;;;6.96;100.0
22775;BME280;11554;51.106;3.684;2023-03-04T09:50:02;102747.88;;;7.03;100.0
22775;BME280;11554;51.106;3.684;2023-03-04T09:55:03;102738.77;;;7.18;100.0
22775;BME280;11554;51.106;3.684;2023-03-04T10:00:03;102742.24999999999;;;7.23;100.0
22775;BME280;11554;51.106;3.684;2023-03-04T10:05:00;102742.91;;;7.42;100.0
22775;BME280;11554;51.106;3.684;2023-03-04T10:10:00;102738.38;;;7.55;100.0
22775;BME280;11554;51.106;3.684;2023-03-04T10:15:01;102743.74;;;7.38;100.0
22775;BME280;11554;51.106;3.684;2023-03-04T10:20:01;102744.40999999999;;;7.27;100.0
22775;BME280;11554;51.106;3.684;2023-03-04T10:25:01;102744.19;;;7.66;100.0
22775;BME280;11554;51.106;3.684;2023-03-04T10:30:00;102733.86;;;8.60;100.0
22775;BME280;11554;51.106;3.684;2023-03-04T10:35:00;102736.17;;;8.69;99.42
22775;BME280;11554;51.106;3.684;2023-03-04T10:40:00;102735.35999999999;;;8.53;98.54
22775;BME280;11554;51.106;3.684;2023-03-04T10:45:00;102735.70999999999;;;8.11;97.3
22775;BME280;11554;51.106;3.684;2023-03-04T10:50:01;102731.04000000001;;;8.11;98.45
22775;BME280;11554;51.106;3.684;2023-03-04T10:55:01;102731.73999999999;;;8.26;98.6
22775;BME280;11554;51.106;3.684;2023-03-04T11:00:00;102725.52;;;8.26;97.44
22775;BME280;11554;51.106;3.684;2023-03-04T11:10:06;102722.51000000001;;;9.28;98.23
22775;BME280;11554;51.106;3.684;2023-03-04T11:15:00;102712.59999999999;;;9.70;91.28
22775;BME280;11554;51.106;3.684;2023-03-04T11:20:01;102708.44;;;9.49;90.69
22775;BME280;11554;51.106;3.684;2023-03-04T11:25:01;102703.46999999999;;;9.79;91.22
22775;BME280;11554;51.106;3.684;2023-03-04T11:30:02;102692.76999999999;;;10.13;89.92
22775;BME280;11554;51.106;3.684;2023-03-04T11:35:01;102684.42;;;10.08;88.38
22775;BME280;11554;51.106;3.684;2023-03-04T11:40:00;102677.05;;;10.08;87.21
22775;BME280;11554;51.106;3.684;2023-03-04T11:45:00;102677.08;;;9.78;88.13
22775;BME280;11554;51.106;3.684;2023-03-04T11:50:03;102671.57999999999;;;9.76;88.28
22775;BME280;11554;51.106;3.684;2023-03-04T11:55:07;102657.03000000001;;;10.14;89.5
22775;BME280;11554;51.106;3.684;2023-03-04T12:00:03;102655.43000000001;;;9.79;88.3
22775;BME280;11554;51.106;3.684;2023-03-04T12:05:04;102649.07;;;9.89;89.19
22775;BME280;11554;51.106;3.684;2023-03-04T12:10:02;102644.29000000001;;;10.29;88.13
22775;BME280;11554;51.106;3.684;2023-03-04T12:15:04;102639.69;;;10.62;87.12
22775;BME280;11554;51.106;3.684;2023-03-04T12:20:03;102639.9;;;9.78;86.9
22775;BME280;11554;51.106;3.684;2023-03-04T12:25:07;102636.6;;;9.70;90.11
22775;BME280;11554;51.106;3.684;2023-03-04T12:30:00;102627.23000000001;;;9.97;91.33
22775;BME280;11554;51.106;3.684;2023-03-04T12:35:04;102622.77999999998;;;10.60;90.98
22775;BME280;11554;51.106;3.684;2023-03-04T12:40:03;102613.71999999999;;;10.72;88.75
22775;BME280;11554;51.106;3.684;2023-03-04T12:45:01;102609.98999999999;;;10.16;90.39
22775;BME280;11554;51.106;3.684;2023-03-04T12:50:04;102606.42;;;10.08;91.9
22775;BME280;11554;51.106;3.684;2023-03-04T12:55:01;102604.7;;;10.27;90.32
22775;BME280;11554;51.106;3.684;2023-03-04T13:00:05;102601.99;;;10.40;90.92
22775;BME280;11554;51.106;3.684;2023-03-04T13:05:02;102596.17000000001;;;10.04;90.71
22775;BME280;11554;51.106;3.684;2023-03-04T13:10:01;102592.60999999999;;;9.75;91.69
22775;BME280;11554;51.106;3.684;2023-03-04T13:20:10;102579.72;;;9.44;92.99
22775;BME280;11554;51.106;3.684;2023-03-04T13:25:01;102571.19;;;9.33;92.72
22775;BME280;11554;51.106;3.684;2023-03-04T13:30:00;102571.12999999999;;;9.24;93.76
22775;BME280;11554;51.106;3.684;2023-03-04T13:35:00;102572.0;;;9.12;93.74
22775;BME280;11554;51.106;3.684;2023-03-04T13:45:00;102569.27;;;9.01;94.81
22775;BME280;11554;51.106;3.684;2023-03-04T14:00:00;102560.18999999999;;;9.09;96.14
22775;BME280;11554;51.106;3.684;2023-03-04T14:05:00;102557.86;;;9.24;95.98
22775;BME280;11554;51.106;3.684;2023-03-04T14:10:00;102550.73;;;9.26;96.18
22775;BME280;11554;51.106;3.684;2023-03-04T14:15:01;102542.82;;;9.72;95.85
22775;BME280;11554;51.106;3.684;2023-03-04T14:20:00;102542.97999999998;;;9.58;94.12
22775;BME280;11554;51.106;3.684;2023-03-04T14:25:01;102537.82;;;9.18;94.74
22775;BME280;11554;51.106;3.684;2023-03-04T14:30:00;102532.18;;;8.83;95.93
22775;BME280;11554;51.106;3.684;2023-03-04T14:35:01;102528.65999999999;;;8.85;97.63
22775;BME280;11554;51.106;3.684;2023-03-04T14:40:00;102520.36;;;9.11;97.8
22775;BME280;11554;51.106;3.684;2023-03-04T14:45:00;102517.79;;;9.01;97.14
22775;BME280;11554;51.106;3.684;2023-03-04T14:50:00;102522.42000000001;;;8.48;99.44
22775;BME280;11554;51.106;3.684;2023-03-04T14:55:02;102520.53000000001;;;8.01;100.0
22775;BME280;11554;51.106;3.684;2023-03-04T15:05:00;102515.31;;;7.88;100.0
22775;BME280;11554;51.106;3.684;2023-03-04T15:10:00;102511.68000000001;;;8.02;100.0
22775;BME280;11554;51.106;3.684;2023-03-04T15:15:01;102509.7;;;8.28;100.0
22775;BME280;11554;51.106;3.684;2023-03-04T15:20:01;102501.32;;;8.24;100.0
22775;BME280;11554;51.106;3.684;2023-03-04T15:25:00;102495.36;;;8.27;100.0
22775;BME280;11554;51.106;3.684;2023-03-04T15:30:00;102487.74;;;8.12;100.0
22775;BME280;11554;51.106;3.684;2023-03-04T15:35:00;102479.9;;;8.75;100.0
22775;BME280;11554;51.106;3.684;2023-03-04T15:40:00;102472.44;;;9.39;100.0
22775;BME280;11554;51.106;3.684;2023-03-04T15:45:00;102471.84999999999;;;9.44;98.63
22775;BME280;11554;51.106;3.684;2023-03-04T15:50:00;102475.96;;;9.04;97.58
22775;BME280;11554;51.106;3.684;2023-03-04T15:55:00;102473.83;;;8.70;98.54
22775;BME280;11554;51.106;3.684;2023-03-04T16:00:00;102475.05000000002;;;8.52;99.29
22775;BME280;11554;51.106;3.684;2023-03-04T16:05:00;102473.29;;;8.40;99.63
22775;BME280;11554;51.106;3.684;2023-03-04T16:10:00;102476.37999999999;;;8.12;100.0
22775;BME280;11554;51.106;3.684;2023-03-04T16:15:00;102473.04999999999;;;7.51;100.0
22775;BME280;11554;51.106;3.684;2023-03-04T16:20:00;102471.97000000002;;;7.34;100.0
22775;BME280;11554;51.106;3.684;2023-03-04T16:25:00;102471.75;;;7.25;100.0
22775;BME280;11554;51.106;3.684;2023-03-04T16:30:00;102474.65999999999;;;7.28;100.0
22775;BME280;11554;51.106;3.684;2023-03-04T16:35:00;102468.92;;;7.33;100.0
22775;BME280;11554;51.106;3.684;2023-03-04T16:40:00;102461.06;;;7.32;100.0
22775;BME280;11554;51.106;3.684;2023-03-04T16:45:00;102462.66;;;7.21;100.0
22775;BME280;11554;51.106;3.684;2023-03-04T16:50:00;102460.86;;;7.08;100.0
22775;BME280;11554;51.106;3.684;2023-03-04T16:55:00;102448.08;;;6.88;100.0
22775;BME280;11554;51.106;3.684;2023-03-04T17:00:00;102452.92;;;6.74;100.0
22775;BME280;11554;51.106;3.684;2023-03-04T17:05:00;102455.9;;;6.59;100.0
22775;BME280;11554;51.106;3.684;2023-03-04T17:10:00;102459.48000000001;;;6.40;100.0
22775;BME280;11554;51.106;3.684;2023-03-04T17:15:00;102460.47000000002;;;6.27;100.0
22775;BME280;11554;51.106;3.684;2023-03-04T17:20:00;102463.64000000001;;;6.25;100.0
22775;BME280;11554;51.106;3.684;2023-03-04T17:25:00;102460.93000000001;;;6.20;100.0
22775;BME280;11554;51.106;3.684;2023-03-04T17:30:00;102468.23999999999;;;6.16;100.0
22775;BME280;11554;51.106;3.684;2023-03-04T17:35:00;102469.82;;;6.08;100.0
22775;BME280;11554;51.106;3.684;2023-03-04T17:40:00;102473.38;;;6.01;100.0
22775;BME280;11554;51.106;3.684;2023-03-04T17:45:00;102477.10999999999;;;5.92;100.0
22775;BME280;11554;51.106;3.684;2023-03-04T17:50:00;102477.45;;;5.79;100.0
22775;BME280;11554;51.106;3.684;2023-03-04T17:55:00;102479.7;;;5.72;100.0
22775;BME280;11554;51.106;3.684;2023-03-04T18:00:00;102476.99;;;5.59;100.0
22775;BME280;11554;51.106;3.684;2023-03-04T18:05:01;102477.06000000001;;;5.44;100.0
22775;BME280;11554;51.106;3.684;2023-03-04T18:10:00;102482.62999999999;;;5.32;100.0
22775;BME280;11554;51.106;3.684;2023-03-04T18:15:00;102483.14;;;5.10;100.0
22775;BME280;11554;51.106;3.684;2023-03-04T18:20:00;102477.23000000001;;;4.91;100.0
22775;BME280;11554;51.106;3.684;2023-03-04T18:25:00;102483.41;;;4.88;100.0
22775;BME280;11554;51.106;3.684;2023-03-04T18:30:00;102480.76000000001;;;4.88;100.0
22775;BME280;11554;51.106;3.684;2023-03-04T18:35:00;102483.02;;;4.82;100.0
22775;BME280;11554;51.106;3.684;2023-03-04T18:40:00;102484.89;;;4.79;100.0
22775;BME280;11554;51.106;3.684;2023-03-04T18:45:00;102477.53;;;4.80;100.0
22775;BME280;11554;51.106;3.684;2023-03-04T18:50:00;102468.24999999999;;;4.82;100.0
22775;BME280;11554;51.106;3.684;2023-03-04T18:55:00;102472.21999999999;;;4.81;100.0
22775;BME280;11554;51.106;3.684;2023-03-04T19:00:01;102476.83;;;4.82;100.0
22775;BME280;11554;51.106;3.684;2023-03-04T19:05:01;102471.25000000001;;;4.81;100.0
22775;BME280;11554;51.106;3.684;2023-03-04T19:10:00;102479.87000000001;;;4.79;100.0
22775;BME280;11554;51.106;3.684;2023-03-04T19:15:00;102482.97;;;4.80;100.0
22775;BME280;11554;51.106;3.684;2023-03-04T19:20:00;102476.50000000001;;;4.80;100.0
22775;BME280;11554;51.106;3.684;2023-03-04T19:25:00;102484.16;;;4.78;100.0
22775;BME280;11554;51.106;3.684;2023-03-04T19:30:00;102487.68;;;4.78;100.0
22775;BME280;11554;51.106;3.684;2023-03-04T19:35:00;102495.05999999998;;;4.78;100.0
22775;BME280;11554;51.106;3.684;2023-03-04T19:40:00;102486.67;;;4.79;100.0
22775;BME280;11554;51.106;3.684;2023-03-04T19:45:00;102482.32;;;4.80;100.0
22775;BME280;11554;51.106;3.684;2023-03-04T19:50:00;102481.59000000001;;;4.79;100.0
22775;BME280;11554;51.106;3.684;2023-03-04T19:55:00;102482.73999999999;;;4.82;100.0
22775;BME280;11554;51.106;3.684;2023-03-04T20:00:00;102478.17;;;4.80;100.0
22775;BME280;11554;51.106;3.684;2023-03-04T20:05:00;102479.79000000001;;;4.78;100.0
22775;BME280;11554;51.106;3.684;2023-03-04T20:10:00;102479.16;;;4.77;100.0
22775;BME280;11554;51.106;3.684;2023-03-04T20:15:00;102482.75000000001;;;4.76;100.0
22775;BME280;11554;51.106;3.684;2023-03-04T20:20:00;102472.40999999999;;;4.76;100.0
22775;BME280;11554;51.106;3.684;2023-03-04T20:25:00;102471.41999999998;;;4.76;100.0
22775;BME280;11554;51.106;3.684;2023-03-04T20:30:00;102473.03;;;4.76;100.0
22775;BME280;11554;51.106;3.684;2023-03-04T20:35:00;102477.0;;;4.78;100.0
22775;BME280;11554;51.106;3.684;2023-03-04T20:40:00;102472.28;;;4.77;100.0
22775;BME280;11554;51.106;3.684;2023-03-04T20:45:00;102472.03;;;4.76;100.0
22775;BME280;11554;51.106;3.684;2023-03-04T20:50:00;102462.74;;;4.72;100.0
22775;BME280;11554;51.106;3.684;2023-03-04T20:55:00;102455.18;;;4.71;100.0
22775;BME280;11554;51.106;3.684;2023-03-04T21:00:00;102451.05;;;4.65;100.0
22775;BME280;11554;51.106;3.684;2023-03-04T21:05:00;102452.92;;;4.53;100.0
22775;BME280;11554;51.106;3.684;2023-03-04T21:10:00;102449.29;;;4.40;100.0
22775;BME280;11554;51.106;3.684;2023-03-04T21:15:00;102455.54;;;4.21;100.0
22775;BME280;11554;51.106;3.684;2023-03-04T21:20:00;102464.64000000001;;;3.96;100.0
22775;BME280;11554;51.106;3.684;2023-03-04T21:25:00;102464.4;;;3.98;100.0
22775;BME280;11554;51.106;3.684;2023-03-04T21:30:00;102458.02;;;3.98;100.0
22775;BME280;11554;51.106;3.684;2023-03-04T21:35:00;102455.32;;;4.02;100.0
22775;BME280;11554;51.106;3.684;2023-03-04T21:40:00;102449.1;;;4.05;100.0
22775;BME280;11554;51.106;3.684;2023-03-04T21:45:00;102445.40999999999;;;3.96;100.0
22775;BME280;11554;51.106;3.684;2023-03-04T21:50:00;102443.59999999999;;;3.77;100.0
22775;BME280;11554;51.106;3.684;2023-03-04T21:55:00;102439.00000000001;;;3.65;100.0
22775;BME280;11554;51.106;3.684;2023-03-04T22:00:00;102437.67;;;3.53;100.0
22775;BME280;11554;51.106;3.684;2023-03-04T22:05:00;102430.15000000001;;;3.45;100.0
22775;BME280;11554;51.106;3.684;2023-03-04T22:10:00;102430.26;;;3.39;100.0
22775;BME280;11554;51.106;3.684;2023-03-04T22:15:00;102419.87;;;3.46;100.0
22775;BME280;11554;51.106;3.684;2023-03-04T22:20:00;102422.16;;;3.48;100.0
22775;BME280;11554;51.106;3.684;2023-03-04T22:25:00;102416.03;;;3.56;100.0
22775;BME280;11554;51.106;3.684;2023-03-04T22:30:00;102408.59;;;3.60;100.0
22775;BME280;11554;51.106;3.684;2023-03-04T22:35:00;102405.8;;;3.60;100.0
22775;BME280;11554;51.106;3.684;2023-03-04T22:40:00;102402.27;;;3.61;100.0
22775;BME280;11554;51.106;3.684;2023-03-04T22:45:00;102405.85;;;3.62;100.0
22775;BME280;11554;51.106;3.684;2023-03-04T22:50:00;102403.0;;;3.65;100.0
22775;BME280;11554;51.106;3.684;2023-03-04T22:55:00;102399.13;;;3.66;100.0
22775;BME280;11554;51.106;3.684;2023-03-04T23:00:00;102396.12;;;3.61;100.0
22775;BME280;11554;51.106;3.684;2023-03-04T23:05:00;102403.25;;;3.46;100.0
22775;BME280;11554;51.106;3.684;2023-03-04T23:10:00;102401.97;;;3.30;100.0
22775;BME280;11554;51.106;3.684;2023-03-04T23:15:00;102397.56;;;3.22;100.0
22775;BME280;11554;51.106;3.684;2023-03-04T23:20:00;102395.86;;;3.02;100.0
22775;BME280;11554;51.106;3.684;2023-03-04T23:25:00;102392.69;;;2.78;100.0
22775;BME280;11554;51.106;3.684;2023-03-04T23:30:00;102392.42;;;2.55;100.0
22775;BME280;11554;51.106;3.684;2023-03-04T23:35:00;102382.78;;;2.46;100.0
22775;BME280;11554;51.106;3.684;2023-03-04T23:40:00;102385.97;;;2.41;100.0
22775;BME280;11554;51.106;3.684;2023-03-04T23:45:00;102384.82;;;2.56;100.0
22775;BME280;11554;51.106;3.684;2023-03-04T23:50:00;102376.42;;;2.69;100.0
22775;BME280;11554;51.106;3.684;2023-03-04T23:55:00;102372.36;;;2.75;100.0
